Time;durP1;ratioP1;P1;durP2;ratioP2;P2;SDS_P1;SDS_P2;PMS_P1;PMS_P2;Temp;Humidity;BMP_temperature;BMP_pressure;BME280_temperature;BME280_humidity;BME280_pressure;Samples;Min_cycle;Max_cycle;Signal;HPM_P1;HPM_P2
2023/02/08 00:01:22;;;;;;;9.35;4.07;;;1.80;67.10;;;;;;2295878;56;20888;-83
2023/02/08 00:03:49;;;;;;;7.57;4.12;;;1.80;67.10;;;;;;2294945;56;20984;-82
2023/02/08 00:06:15;;;;;;;7.80;4.18;;;1.80;67.00;;;;;;2530971;54;21292;-82
2023/02/08 00:08:41;;;;;;;7.82;4.07;;;1.80;67.00;;;;;;2530759;54;20885;-83
2023/02/08 00:11:09;;;;;;;11.82;4.93;;;1.70;66.80;;;;;;2295918;56;20863;-83
2023/02/08 00:13:35;;;;;;;10.80;5.05;;;1.70;66.80;;;;;;2530638;54;20977;-83
2023/02/08 00:16:02;;;;;;;10.63;5.45;;;1.70;66.80;;;;;;2530279;54;21574;-83
2023/02/08 00:18:28;;;;;;;10.25;5.15;;;1.70;66.80;;;;;;2295818;56;20973;-83
2023/02/08 00:20:56;;;;;;;10.50;5.03;;;1.60;66.70;;;;;;2529227;54;20999;-83
2023/02/08 00:23:23;;;;;;;12.80;6.28;;;1.60;66.70;;;;;;2530295;54;20892;-82
2023/02/08 00:25:49;;;;;;;9.77;5.05;;;1.60;66.70;;;;;;2295398;56;20941;-83
2023/02/08 00:28:16;;;;;;;10.88;5.53;;;1.60;66.70;;;;;;2531161;53;20928;-82
2023/02/08 00:30:42;;;;;;;10.18;4.97;;;1.50;66.70;;;;;;2296291;56;21153;-82
2023/02/08 00:33:09;;;;;;;10.40;5.12;;;1.50;66.60;;;;;;2531003;54;21027;-84
2023/02/08 00:35:35;;;;;;;10.27;5.30;;;1.50;66.60;;;;;;2296013;56;20979;-83
2023/02/08 00:38:01;;;;;;;9.15;4.50;;;1.50;66.60;;;;;;2296145;55;20889;-83
2023/02/08 00:40:28;;;;;;;10.75;4.97;;;1.50;66.60;;;;;;2531467;54;20916;-82
2023/02/08 00:42:54;;;;;;;12.90;5.78;;;1.40;66.50;;;;;;2530251;52;20920;-83
2023/02/08 00:45:20;;;;;;;13.88;6.00;;;1.40;66.50;;;;;;2296035;56;20929;-83
2023/02/08 00:47:46;;;;;;;12.88;5.60;;;1.40;66.50;;;;;;2295594;56;20944;-83
2023/02/08 00:50:13;;;;;;;11.82;6.55;;;1.40;66.50;;;;;;2530127;53;20936;-84
2023/02/08 00:52:39;;;;;;;14.10;6.32;;;1.40;66.50;;;;;;2530660;54;20939;-83
2023/02/08 00:55:06;;;;;;;12.98;6.57;;;1.30;66.40;;;;;;2530321;54;20948;-83
2023/02/08 00:57:33;;;;;;;10.77;6.12;;;1.30;66.50;;;;;;2531512;54;20917;-83
2023/02/08 01:00:00;;;;;;;10.20;5.10;;;1.30;66.60;;;;;;2530280;54;20912;-83
2023/02/08 01:02:26;;;;;;;9.57;5.10;;;1.30;66.60;;;;;;2530884;54;20916;-83
2023/02/08 01:04:52;;;;;;;9.43;5.25;;;1.20;66.60;;;;;;2295354;56;21840;-83
2023/02/08 01:07:18;;;;;;;12.95;6.50;;;1.20;66.50;;;;;;2296196;56;21964;-83
2023/02/08 01:09:45;;;;;;;14.27;7.65;;;1.20;66.50;;;;;;2526985;54;20965;-82
2023/02/08 01:12:11;;;;;;;12.77;6.65;;;1.20;66.50;;;;;;2530548;54;20893;-82
2023/02/08 01:14:37;;;;;;;13.05;6.43;;;1.20;66.50;;;;;;2530894;54;20881;-82
2023/02/08 01:17:04;;;;;;;12.20;5.95;;;1.20;66.60;;;;;;2530413;54;20957;-82
2023/02/08 01:19:30;;;;;;;11.27;5.75;;;1.10;66.40;;;;;;2295901;56;20944;-82
2023/02/08 01:21:56;;;;;;;11.80;6.20;;;1.10;66.30;;;;;;2529957;54;20908;-82
2023/02/08 01:24:23;;;;;;;13.30;6.12;;;1.10;66.30;;;;;;2530364;54;20913;-82
2023/02/08 01:26:49;;;;;;;14.85;6.80;;;1.10;66.40;;;;;;2529904;54;21369;-83
2023/02/08 01:29:15;;;;;;;15.07;6.62;;;1.00;66.40;;;;;;2296222;56;20869;-83
2023/02/08 01:31:42;;;;;;;15.32;6.28;;;1.00;66.40;;;;;;2530112;54;21369;-83
2023/02/08 01:34:08;;;;;;;12.02;5.85;;;1.00;66.40;;;;;;2511007;54;21244;-82
2023/02/08 01:36:35;;;;;;;17.60;7.75;;;1.00;66.40;;;;;;2521184;54;20989;-82
2023/02/08 01:39:02;;;;;;;13.15;6.10;;;1.00;66.30;;;;;;2294781;56;20953;-83
2023/02/08 01:41:31;;;;;;;10.25;4.85;;;0.90;66.30;;;;;;2296263;56;20881;-82
2023/02/08 01:44:25;;;;;;;11.45;5.68;;;0.90;66.30;;;;;;2529256;54;20933;-82
2023/02/08 01:46:52;;;;;;;9.95;4.43;;;0.90;66.30;;;;;;2529341;54;20945;-81
2023/02/08 01:49:24;;;;;;;12.43;5.50;;;0.90;66.30;;;;;;2295168;56;20953;-83
2023/02/08 01:52:02;;;;;;;10.85;5.37;;;0.90;66.40;;;;;;2528811;54;22000;-82
2023/02/08 01:54:33;;;;;;;10.48;4.85;;;0.80;66.20;;;;;;2297306;56;20888;-82
2023/02/08 01:57:00;;;;;;;10.50;4.87;;;0.80;66.20;;;;;;2504569;54;20935;-82
2023/02/08 01:59:31;;;;;;;11.88;5.10;;;0.80;66.20;;;;;;2530215;54;20949;-82
2023/02/08 02:01:57;;;;;;;12.15;5.45;;;0.80;66.20;;;;;;2529364;54;20924;-82
2023/02/08 02:04:24;;;;;;;9.07;4.55;;;0.70;66.20;;;;;;2530406;54;21968;-82
2023/02/08 02:06:53;;;;;;;9.90;4.80;;;0.70;66.30;;;;;;2294984;55;20889;-82
2023/02/08 02:09:30;;;;;;;8.93;4.62;;;0.70;66.30;;;;;;2528542;54;20936;-83
2023/02/08 02:11:56;;;;;;;11.20;5.07;;;0.70;66.20;;;;;;2292857;56;21195;-82
2023/02/08 02:14:23;;;;;;;9.38;4.50;;;0.70;66.20;;;;;;2293508;56;20909;-82
2023/02/08 02:16:49;;;;;;;10.30;4.82;;;0.60;66.20;;;;;;2526895;54;21001;-82
2023/02/08 02:19:45;;;;;;;10.27;4.72;;;0.60;66.10;;;;;;2526597;54;20897;-82
2023/02/08 02:25:37;;;;;;;9.43;4.90;;;0.60;65.90;;;;;;2526747;54;21026;-82
2023/02/08 02:35:03;;;;;;;8.02;3.62;;;0.60;65.30;;;;;;2291948;56;21043;-83
2023/02/08 02:37:54;;;;;;;7.35;3.45;;;0.50;65.70;;;;;;2293553;56;21285;-83
2023/02/08 02:51:37;;;;;;;9.82;4.15;;;0.40;65.70;;;;;;2502668;54;21018;-82
2023/02/08 02:55:39;;;;;;;12.98;4.70;;;0.20;64.90;;;;;;2525761;54;20905;-82
2023/02/08 02:58:06;;;;;;;10.48;4.40;;;0.20;65.60;;;;;;2526525;54;21866;-82
2023/02/08 03:00:32;;;;;;;10.88;4.95;;;0.10;65.70;;;;;;2527149;54;20900;-82
2023/02/08 03:02:58;;;;;;;10.43;5.15;;;0.20;65.90;;;;;;2504807;54;21002;-82
2023/02/08 03:05:25;;;;;;;11.80;6.03;;;0.00;65.90;;;;;;2521288;54;21108;-81
2023/02/08 03:09:31;;;;;;;12.20;5.30;;;0.00;66.00;;;;;;2292531;56;21603;-82
2023/02/08 03:18:02;;;;;;;10.70;5.55;;;0.00;65.50;;;;;;2527700;54;20936;-82
2023/02/08 03:22:04;;;;;;;9.98;5.00;;;0.00;65.40;;;;;;2294405;56;21767;-82
2023/02/08 03:24:58;;;;;;;10.40;4.07;;;-0.10;66.00;;;;;;2527703;54;20956;-84
2023/02/08 03:27:34;;;;;;;9.95;4.90;;;-0.10;66.20;;;;;;2275443;55;20929;-83
2023/02/08 03:31:53;;;;;;;11.57;5.65;;;-0.10;66.30;;;;;;2526754;54;20935;-81
2023/02/08 03:34:25;;;;;;;13.85;6.68;;;-0.10;65.70;;;;;;2527199;54;20960;-82
2023/02/08 03:37:01;;;;;;;10.32;4.72;;;-0.10;66.30;;;;;;2293777;56;20952;-83
2023/02/08 03:39:28;;;;;;;10.68;5.03;;;-0.10;66.30;;;;;;2528332;54;20976;-82
2023/02/08 03:41:58;;;;;;;11.12;5.57;;;-0.10;66.40;;;;;;2527581;54;20928;-82
2023/02/08 03:44:28;;;;;;;11.93;5.25;;;-0.10;66.40;;;;;;2528583;54;21863;-82
2023/02/08 03:46:57;;;;;;;13.73;6.05;;;-0.20;66.20;;;;;;2274536;55;21552;-82
2023/02/08 03:49:30;;;;;;;11.73;5.82;;;-0.20;66.10;;;;;;2528034;54;20929;-82
2023/02/08 03:51:57;;;;;;;;;;;-0.20;66.10;;;;;;2531592;54;20929;-82
2023/02/08 03:54:24;;;;;;;11.45;5.53;;;-0.20;65.30;;;;;;2527621;54;20068;-82
2023/02/08 03:57:15;;;;;;;14.18;5.78;;;-0.20;65.90;;;;;;2293747;56;20933;-83
2023/02/08 03:59:43;;;;;;;9.73;5.28;;;-0.30;65.60;;;;;;2294094;56;20937;-83
2023/02/08 04:02:11;;;;;;;10.30;4.97;;;-0.20;66.00;;;;;;2292902;55;20952;-81
2023/02/08 04:04:41;;;;;;;11.75;5.25;;;-0.30;65.90;;;;;;2527892;54;20924;-82
2023/02/08 04:07:07;;;;;;;11.43;4.93;;;-0.30;65.90;;;;;;2526755;54;20932;-81
2023/02/08 04:09:33;;;;;;;8.77;4.65;;;-0.30;65.90;;;;;;2292854;56;21004;-82
2023/02/08 04:11:59;;;;;;;13.90;6.00;;;-0.40;65.80;;;;;;2525999;54;20971;-81
2023/02/08 04:14:26;;;;;;;9.57;4.82;;;-0.40;65.80;;;;;;2527259;54;20973;-82
2023/02/08 04:16:52;;;;;;;11.65;5.40;;;-0.40;65.80;;;;;;2292928;56;20945;-82
2023/02/08 04:19:18;;;;;;;10.20;5.35;;;-0.40;65.80;;;;;;2526893;54;20987;-82
2023/02/08 04:21:44;;;;;;;11.20;5.97;;;-0.40;65.80;;;;;;2527921;54;20928;-83
2023/02/08 04:24:11;;;;;;;11.73;5.15;;;-0.50;65.70;;;;;;2526597;54;21855;-82
2023/02/08 04:26:37;;;;;;;12.35;6.37;;;-0.50;65.70;;;;;;2527510;54;20969;-83
2023/02/08 04:29:03;;;;;;;12.32;5.72;;;-0.50;65.60;;;;;;2514564;54;21015;-81
2023/02/08 04:31:29;;;;;;;12.32;5.90;;;-0.50;65.70;;;;;;2514934;54;22309;-82
2023/02/08 04:33:56;;;;;;;10.60;5.60;;;-0.50;65.70;;;;;;2515282;54;20940;-83
2023/02/08 04:36:23;;;;;;;11.27;5.18;;;-0.50;65.80;;;;;;2515667;54;20889;-82
2023/02/08 04:38:49;;;;;;;10.90;4.82;;;-0.60;65.80;;;;;;2514797;54;20972;-83
2023/02/08 04:41:15;;;;;;;9.85;4.22;;;-0.60;65.70;;;;;;2515141;54;21644;-83
2023/02/08 04:43:41;;;;;;;11.65;5.15;;;-0.60;65.70;;;;;;2283182;56;20972;-83
2023/02/08 04:46:08;;;;;;;9.85;4.57;;;-0.60;65.70;;;;;;2514992;54;21681;-83
2023/02/08 04:48:34;;;;;;;8.68;3.83;;;-0.60;65.70;;;;;;2283310;56;20996;-83
2023/02/08 04:51:00;;;;;;;12.27;5.32;;;-0.60;65.70;;;;;;2515835;54;20989;-83
2023/02/08 04:53:27;;;;;;;14.18;6.30;;;-0.70;65.50;;;;;;2284455;56;21045;-83
2023/02/08 04:55:53;;;;;;;15.45;6.95;;;-0.70;65.50;;;;;;2514342;54;21392;-82
2023/02/08 04:58:19;;;;;;;15.25;7.40;;;-0.70;65.50;;;;;;2509727;54;21032;-81
2023/02/08 05:00:46;;;;;;;13.57;6.43;;;-0.70;65.50;;;;;;2509486;54;21855;-83
2023/02/08 05:03:12;;;;;;;15.77;7.50;;;-0.70;65.60;;;;;;2509069;54;20913;-83
2023/02/08 05:05:38;;;;;;;15.82;7.68;;;-0.70;65.60;;;;;;2510524;54;21028;-83
2023/02/08 05:08:05;;;;;;;18.33;7.45;;;-0.80;65.50;;;;;;2509349;54;20968;-82
2023/02/08 05:10:31;;;;;;;14.75;7.03;;;-0.80;65.60;;;;;;2509917;54;20957;-82
2023/02/08 05:12:57;;;;;;;15.23;6.82;;;-0.90;65.50;;;;;;2509605;54;22087;-82
2023/02/08 05:15:24;;;;;;;15.98;7.18;;;-0.80;65.50;;;;;;2510521;54;20951;-83
2023/02/08 05:17:50;;;;;;;14.80;6.75;;;-0.80;65.50;;;;;;2278375;55;20928;-82
2023/02/08 05:20:16;;;;;;;16.45;7.25;;;-0.80;65.50;;;;;;2509773;54;21004;-83
2023/02/08 05:22:43;;;;;;;13.85;6.85;;;-0.90;65.40;;;;;;2510383;54;20928;-83
2023/02/08 05:25:10;;;;;;;12.13;5.72;;;-0.90;65.40;;;;;;2509445;54;22033;-82
2023/02/08 05:27:36;;;;;;;12.63;6.18;;;-0.90;65.40;;;;;;2278950;56;20993;-82
2023/02/08 05:30:03;;;;;;;11.27;6.10;;;-0.90;65.40;;;;;;2509807;54;20909;-83
2023/02/08 05:32:29;;;;;;;12.70;6.15;;;-0.90;65.60;;;;;;2511508;54;21450;-81
2023/02/08 05:34:56;;;;;;;12.85;5.95;;;-0.90;65.70;;;;;;2510217;54;20985;-83
2023/02/08 05:37:22;;;;;;;13.23;6.45;;;-0.90;65.90;;;;;;2278922;56;20920;-83
2023/02/08 05:39:48;;;;;;;13.10;6.87;;;-0.90;66.00;;;;;;2509546;54;21484;-83
2023/02/08 05:42:15;;;;;;;12.65;6.22;;;-0.90;66.10;;;;;;2509891;54;21922;-83
2023/02/08 05:44:41;;;;;;;12.95;6.80;;;-0.90;66.20;;;;;;2269939;55;21428;-83
2023/02/08 05:47:07;;;;;;;10.50;5.43;;;-0.90;66.20;;;;;;2497992;54;20900;-83
2023/02/08 05:49:34;;;;;;;13.48;7.05;;;-0.90;66.30;;;;;;2510404;54;20997;-83
2023/02/08 05:52:00;;;;;;;11.90;5.78;;;-0.90;66.30;;;;;;2278139;56;21106;-84
2023/02/08 05:54:27;;;;;;;15.02;7.35;;;-0.90;66.50;;;;;;2510869;54;20945;-82
2023/02/08 05:56:53;;;;;;;10.98;6.22;;;-0.90;66.40;;;;;;2509239;54;20944;-83
2023/02/08 05:59:20;;;;;;;14.65;6.97;;;-0.80;66.60;;;;;;2509751;54;21007;-83
2023/02/08 06:01:46;;;;;;;11.80;6.28;;;-0.80;66.50;;;;;;2278967;56;20909;-83
2023/02/08 06:04:12;;;;;;;12.95;6.22;;;-0.80;66.50;;;;;;2512103;54;21045;-82
2023/02/08 06:06:38;;;;;;;11.90;6.53;;;-0.80;66.40;;;;;;2511797;54;22125;-83
2023/02/08 06:09:05;;;;;;;14.57;6.87;;;-0.80;66.30;;;;;;2512029;54;20925;-83
2023/02/08 06:11:31;;;;;;;12.07;6.32;;;-0.80;66.30;;;;;;2280237;56;20921;-82
2023/02/08 06:13:57;;;;;;;15.18;7.50;;;-0.80;66.30;;;;;;2512429;54;20996;-83
2023/02/08 06:16:24;;;;;;;10.98;6.65;;;-0.80;66.10;;;;;;2509083;54;20869;-82
2023/02/08 06:18:50;;;;;;;13.00;6.68;;;-0.80;66.10;;;;;;2487138;54;20972;-83
2023/02/08 06:21:19;;;;;;;12.85;6.55;;;-0.80;66.10;;;;;;2511968;54;20921;-83
2023/02/08 06:23:45;;;;;;;15.68;7.18;;;-0.90;65.90;;;;;;2279936;55;21689;-84
2023/02/08 06:26:11;;;;;;;12.85;6.60;;;-0.90;65.90;;;;;;2279829;56;21089;-83
2023/02/08 06:28:38;;;;;;;11.18;5.75;;;-0.90;65.90;;;;;;2512687;54;21350;-82
2023/02/08 06:31:04;;;;;;;12.48;5.65;;;-0.90;65.90;;;;;;2512916;54;21110;-83
2023/02/08 06:33:30;;;;;;;13.40;6.60;;;-0.90;65.70;;;;;;2281362;56;20810;-82
2023/02/08 06:35:57;;;;;;;12.20;6.78;;;-0.90;65.60;;;;;;2280579;55;20905;-82
2023/02/08 06:38:23;;;;;;;13.95;7.22;;;-0.90;65.60;;;;;;2512034;54;21076;-83
2023/02/08 06:40:50;;;;;;;10.95;5.90;;;-0.90;65.50;;;;;;2280524;56;20937;-83
2023/02/08 06:43:16;;;;;;;14.93;7.95;;;-0.90;66.10;;;;;;2513525;54;20953;-82
2023/02/08 06:45:46;;;;;;;14.20;7.53;;;-0.90;66.90;;;;;;2515105;54;21964;-83
2023/02/08 06:48:12;;;;;;;11.63;6.60;;;-0.90;67.40;;;;;;2515205;52;20949;-83
2023/02/08 06:50:38;;;;;;;14.45;7.45;;;-0.80;67.70;;;;;;2515722;54;20908;-82
2023/02/08 06:53:05;;;;;;;15.95;7.32;;;-0.80;67.60;;;;;;2515080;52;21357;-83
2023/02/08 06:55:31;;;;;;;13.23;6.60;;;-0.80;67.50;;;;;;2515825;52;20889;-83
2023/02/08 06:57:58;;;;;;;11.75;6.25;;;-0.80;67.20;;;;;;2515140;53;20892;-83
2023/02/08 07:00:24;;;;;;;15.70;7.68;;;-0.80;66.90;;;;;;2513739;54;21053;-83
2023/02/08 07:02:51;;;;;;;14.85;6.97;;;-0.80;66.60;;;;;;2514560;54;20984;-83
2023/02/08 07:05:17;;;;;;;15.73;8.07;;;-0.90;66.30;;;;;;2281020;55;20905;-83
2023/02/08 07:07:44;;;;;;;12.30;6.85;;;-0.90;66.00;;;;;;2281005;56;20913;-83
2023/02/08 07:10:10;;;;;;;14.80;7.43;;;-0.90;65.80;;;;;;2513099;54;20912;-84
2023/02/08 07:12:36;;;;;;;11.27;5.85;;;-0.90;65.60;;;;;;2513980;54;21052;-83
2023/02/08 07:15:03;;;;;;;13.20;6.60;;;-1.00;65.30;;;;;;2262582;55;20903;-82
2023/02/08 07:17:29;;;;;;;12.98;7.32;;;-1.00;65.20;;;;;;2514147;54;20929;-83
2023/02/08 07:19:56;;;;;;;19.67;8.48;;;-1.10;65.00;;;;;;2512706;54;21007;-84
2023/02/08 07:22:22;;;;;;;20.95;9.18;;;-1.10;64.80;;;;;;2512888;54;20916;-83
2023/02/08 07:24:48;;;;;;;16.87;7.95;;;-1.10;64.80;;;;;;2281471;55;20905;-83
2023/02/08 07:27:15;;;;;;;15.48;8.02;;;-1.10;64.80;;;;;;2281126;55;20901;-83
2023/02/08 07:29:41;;;;;;;22.10;9.23;;;-1.20;64.70;;;;;;2513341;54;22270;-83
2023/02/08 07:32:09;;;;;;;18.15;8.57;;;-1.20;64.60;;;;;;2512204;54;21051;-83
2023/02/08 07:34:36;;;;;;;17.70;8.23;;;-1.20;64.60;;;;;;2511925;54;22065;-83
2023/02/08 07:37:02;;;;;;;16.85;8.32;;;-1.20;64.60;;;;;;2511527;54;20917;-83
2023/02/08 07:39:30;;;;;;;22.50;10.43;;;-1.20;64.60;;;;;;2500836;54;20954;-83
2023/02/08 07:41:57;;;;;;;23.70;11.65;;;-1.20;64.60;;;;;;2494512;54;21024;-83
2023/02/08 07:44:23;;;;;;;18.85;9.57;;;-1.20;64.60;;;;;;2511629;54;20925;-82
2023/02/08 07:46:49;;;;;;;21.23;9.77;;;-1.30;64.50;;;;;;2280531;56;20940;-83
2023/02/08 07:49:16;;;;;;;19.95;9.65;;;-1.30;64.50;;;;;;2279304;55;21008;-84
2023/02/08 07:51:42;;;;;;;20.75;10.88;;;-1.30;64.50;;;;;;2280480;56;20920;-83
2023/02/08 07:54:08;;;;;;;23.55;10.82;;;-1.30;64.50;;;;;;2279811;56;21956;-83
2023/02/08 07:56:35;;;;;;;22.48;11.40;;;-1.30;64.50;;;;;;2512565;54;20905;-83
2023/02/08 07:59:01;;;;;;;23.35;11.00;;;-1.30;64.60;;;;;;2511372;54;21507;-83
2023/02/08 08:01:28;;;;;;;23.40;11.18;;;-1.30;64.60;;;;;;2511903;54;20924;-82
2023/02/08 08:03:54;;;;;;;25.60;13.23;;;-1.30;64.60;;;;;;2511543;54;20928;-83
2023/02/08 08:06:21;;;;;;;24.58;12.20;;;-1.30;64.70;;;;;;2511429;54;20928;-83
2023/02/08 08:08:47;;;;;;;23.87;13.52;;;-1.30;64.90;;;;;;2511912;54;22199;-81
2023/02/08 08:11:14;;;;;;;23.12;13.05;;;-1.30;64.90;;;;;;2512160;54;20944;-83
2023/02/08 08:13:40;;;;;;;33.33;17.67;;;-1.30;65.00;;;;;;2513097;54;20920;-82
2023/02/08 08:16:07;;;;;;;28.55;15.25;;;-1.30;65.10;;;;;;2512263;54;21476;-83
2023/02/08 08:18:33;;;;;;;31.02;15.63;;;-1.30;65.30;;;;;;2511861;54;20999;-83
2023/02/08 08:21:00;;;;;;;23.00;12.27;;;-1.20;65.50;;;;;;2281296;56;22040;-83
2023/02/08 08:23:27;;;;;;;19.27;11.43;;;-1.40;65.10;;;;;;2513773;54;20913;-82
2023/02/08 08:25:54;;;;;;;24.98;12.45;;;-1.20;65.70;;;;;;2281964;56;22242;-82
2023/02/08 08:28:20;;;;;;;37.78;19.17;;;-1.10;65.90;;;;;;2512894;54;21748;-82
2023/02/08 08:30:47;;;;;;;34.55;18.85;;;-1.10;66.00;;;;;;2512290;54;20929;-82
2023/02/08 08:33:13;;;;;;;36.63;19.70;;;-1.00;66.20;;;;;;2513339;54;20980;-83
2023/02/08 08:35:40;;;;;;;32.13;16.70;;;-1.00;66.30;;;;;;2512652;54;20944;-83
2023/02/08 08:38:06;;;;;;;24.10;13.43;;;-0.90;66.50;;;;;;2512862;54;20984;-82
2023/02/08 08:40:32;;;;;;;24.45;12.82;;;-0.90;66.50;;;;;;2512489;54;21563;-82
2023/02/08 08:42:59;;;;;;;19.23;11.20;;;-0.80;66.70;;;;;;2512729;54;21055;-83
2023/02/08 08:45:25;;;;;;;15.70;9.07;;;-0.80;66.70;;;;;;2511856;54;20935;-83
2023/02/08 08:47:51;;;;;;;18.25;9.60;;;-0.70;66.90;;;;;;2512705;54;22089;-82
2023/02/08 08:50:18;;;;;;;19.08;9.90;;;-0.70;67.00;;;;;;2511391;54;20937;-83
2023/02/08 08:52:44;;;;;;;20.62;10.50;;;-0.60;67.10;;;;;;2512253;54;22165;-83
2023/02/08 08:55:10;;;;;;;19.83;10.27;;;-0.60;67.10;;;;;;2512601;54;20988;-83
2023/02/08 08:57:36;;;;;;;20.83;9.70;;;-0.50;67.30;;;;;;2513007;54;22019;-83
2023/02/08 09:00:03;;;;;;;15.60;7.78;;;-0.40;67.60;;;;;;2511760;54;21080;-82
2023/02/08 09:02:30;;;;;;;20.67;8.70;;;-0.40;67.60;;;;;;2512585;54;22019;-82
2023/02/08 09:04:59;;;;;;;15.85;7.97;;;-0.30;67.70;;;;;;2281025;56;21032;-82
2023/02/08 09:07:25;;;;;;;17.05;9.00;;;-0.20;67.80;;;;;;2281397;56;20980;-83
2023/02/08 09:09:51;;;;;;;19.00;9.85;;;-0.10;67.90;;;;;;2512370;54;20972;-83
2023/02/08 09:12:17;;;;;;;20.05;9.02;;;-0.10;68.00;;;;;;2281768;55;20924;-82
2023/02/08 09:14:44;;;;;;;22.48;11.45;;;0.00;68.10;;;;;;2512399;54;21036;-83
2023/02/08 09:17:11;;;;;;;20.75;10.52;;;0.10;68.30;;;;;;2512921;54;21059;-83
2023/02/08 09:19:37;;;;;;;17.60;9.60;;;0.10;68.30;;;;;;2484366;54;21141;-82
2023/02/08 09:22:05;;;;;;;18.67;9.85;;;0.20;68.50;;;;;;2281449;56;21265;-83
2023/02/08 09:24:32;;;;;;;18.67;9.98;;;0.30;68.70;;;;;;2513908;54;21297;-82
2023/02/08 09:26:58;;;;;;;14.05;7.57;;;0.40;69.50;;;;;;2513408;54;20916;-82
2023/02/08 09:29:28;;;;;;;15.57;8.75;;;0.50;68.90;;;;;;2513121;54;20988;-83
2023/02/08 09:31:54;;;;;;;18.70;10.07;;;0.70;69.00;;;;;;2513467;54;21016;-82
2023/02/08 09:34:21;;;;;;;21.08;11.77;;;0.60;68.80;;;;;;2280522;56;20885;-82
2023/02/08 09:36:47;;;;;;;18.30;10.55;;;0.70;69.00;;;;;;2514774;52;20893;-82
2023/02/08 09:39:18;;;;;;;24.33;11.70;;;0.80;69.10;;;;;;2514143;54;20920;-83
2023/02/08 09:42:02;;;;;;;18.83;10.50;;;1.00;69.50;;;;;;2515159;54;20925;-82
2023/02/08 09:45:01;;;;;;;14.95;8.40;;;1.00;69.50;;;;;;2514630;54;21518;-83
2023/02/08 09:47:34;;;;;;;20.30;10.13;;;1.20;69.70;;;;;;2281676;55;20941;-83
2023/02/08 09:50:35;;;;;;;21.58;9.13;;;1.20;69.80;;;;;;2514040;52;21004;-83
2023/02/08 09:53:34;;;;;;;19.25;8.68;;;1.40;69.90;;;;;;2514795;52;20928;-83
2023/02/08 09:56:03;;;;;;;17.98;8.93;;;1.50;70.00;;;;;;2515181;52;20952;-83
2023/02/08 09:59:30;;;;;;;16.25;8.63;;;1.60;70.10;;;;;;2514253;53;20913;-83
2023/02/08 10:02:21;;;;;;;16.35;8.73;;;1.70;69.70;;;;;;2514662;52;21199;-82
2023/02/08 10:05:02;;;;;;;16.90;9.15;;;1.80;70.10;;;;;;2514500;52;20956;-82
2023/02/08 10:07:28;;;;;;;17.42;9.20;;;2.00;70.40;;;;;;2282027;56;20924;-84
2023/02/08 10:09:56;;;;;;;17.92;10.20;;;2.10;70.60;;;;;;2514720;52;20963;-83
2023/02/08 10:13:25;;;;;;;20.70;9.98;;;2.20;70.80;;;;;;2514639;52;21440;-83
2023/02/08 10:16:15;;;;;;;;;;;2.30;71.20;;;;;;2517648;52;21012;-82
2023/02/08 10:19:45;;;;;;;16.92;8.65;;;2.50;70.50;;;;;;2514058;52;20455;-83
2023/02/08 10:23:51;;;;;;;16.92;9.00;;;2.70;71.20;;;;;;2514153;52;22238;-83
2023/02/08 10:26:39;;;;;;;14.60;8.48;;;2.90;71.60;;;;;;2281020;56;22115;-82
2023/02/08 10:35:53;;;;;;;19.02;9.52;;;3.10;71.60;;;;;;2514145;52;21095;-83
2023/02/08 10:38:28;;;;;;;13.88;7.55;;;3.60;70.70;;;;;;2514718;52;20905;-82
2023/02/08 10:41:11;;;;;;;14.70;6.97;;;3.70;71.90;;;;;;2281500;56;20939;-82
2023/02/08 10:43:41;;;;;;;15.70;8.35;;;3.80;71.90;;;;;;2514171;52;21439;-83
2023/02/08 10:46:46;;;;;;;18.30;9.52;;;4.00;71.70;;;;;;2514229;52;20924;-83
2023/02/08 10:50:42;;;;;;;15.18;7.75;;;4.10;70.80;;;;;;2514152;52;21637;-83
2023/02/08 10:53:15;;;;;;;15.75;8.82;;;4.20;71.30;;;;;;2281682;56;20952;-83
2023/02/08 10:55:44;;;;;;;18.95;10.23;;;4.30;71.30;;;;;;2515696;52;20908;-83
2023/02/08 10:58:16;;;;;;;17.77;9.52;;;4.40;71.80;;;;;;2515476;52;20980;-82
2023/02/08 11:00:46;;;;;;;18.10;10.50;;;4.60;72.30;;;;;;2514627;52;21011;-83
2023/02/08 11:03:19;;;;;;;18.55;10.45;;;4.80;72.90;;;;;;2281623;56;20961;-83
2023/02/08 11:05:46;;;;;;;14.77;8.70;;;4.90;73.40;;;;;;2514364;52;20914;-84
2023/02/08 11:08:23;;;;;;;16.67;9.82;;;5.00;73.40;;;;;;2514599;52;20904;-83
2023/02/08 11:11:08;;;;;;;16.05;9.27;;;5.10;73.00;;;;;;2514751;52;21341;-83
2023/02/08 11:13:37;;;;;;;13.50;8.45;;;5.30;72.70;;;;;;2514788;52;20972;-82
2023/02/08 11:16:05;;;;;;;15.25;8.63;;;5.40;73.30;;;;;;2515176;52;22018;-82
2023/02/08 11:18:45;;;;;;;12.75;7.40;;;5.50;73.40;;;;;;2514150;52;20993;-82
2023/02/08 11:21:37;;;;;;;13.35;7.15;;;5.70;73.10;;;;;;2513386;52;20896;-83
2023/02/08 11:25:05;;;;;;;12.03;6.80;;;5.80;72.70;;;;;;2515449;52;21027;-83
2023/02/08 11:27:43;;;;;;;12.75;7.28;;;5.90;71.60;;;;;;2514580;52;20901;-83
2023/02/08 11:30:19;;;;;;;12.35;7.68;;;6.00;72.40;;;;;;2512975;52;21976;-83
2023/02/08 11:32:47;;;;;;;12.60;7.82;;;6.10;71.60;;;;;;2513802;52;20818;-82
2023/02/08 11:35:24;;;;;;;13.00;7.50;;;6.10;71.50;;;;;;2513750;52;20897;-82
2023/02/08 11:37:54;;;;;;;11.98;7.28;;;6.20;71.10;;;;;;2494344;52;20938;-82
2023/02/08 11:40:36;;;;;;;12.07;6.93;;;6.20;71.40;;;;;;2273682;55;20886;-82
2023/02/08 11:43:02;;;;;;;10.85;6.90;;;6.40;71.20;;;;;;2279993;55;22283;-82
2023/02/08 11:45:30;;;;;;;13.05;7.28;;;6.30;71.50;;;;;;2279530;55;20901;-82
2023/02/08 11:47:56;;;;;;;12.90;7.43;;;6.40;71.40;;;;;;2512973;52;22115;-83
2023/02/08 11:50:30;;;;;;;13.25;7.90;;;6.40;71.10;;;;;;2512105;52;20885;-82
2023/02/08 11:52:58;;;;;;;11.12;6.87;;;6.40;70.70;;;;;;2515699;52;21200;-84
2023/02/08 11:55:26;;;;;;;11.55;6.65;;;6.40;70.50;;;;;;2515105;54;21437;-84
2023/02/08 11:58:16;;;;;;;11.32;6.40;;;6.50;70.60;;;;;;2283412;55;20907;-84
2023/02/08 12:01:47;;;;;;;12.07;6.90;;;6.50;69.90;;;;;;2515631;54;20909;-83
2023/02/08 12:04:14;;;;;;;11.25;5.70;;;6.50;70.10;;;;;;2514180;52;20984;-84
2023/02/08 12:07:09;;;;;;;11.00;7.18;;;6.50;70.20;;;;;;2280831;55;21001;-84
2023/02/08 12:16:36;;;;;;;11.77;7.10;;;6.60;69.20;;;;;;2513948;54;22071;-83
2023/02/08 12:20:44;;;;;;;10.43;5.78;;;6.70;68.90;;;;;;2515250;52;22090;-84
2023/02/08 12:23:54;;;;;;;10.98;6.10;;;6.70;68.70;;;;;;2515062;54;20892;-84
2023/02/08 12:26:56;;;;;;;11.98;7.15;;;6.70;69.50;;;;;;2515340;54;20912;-85
2023/02/08 12:31:05;;;;;;;11.70;6.90;;;6.70;69.40;;;;;;2510592;52;21404;-85
2023/02/08 12:46:49;;;;;;;11.55;6.10;;;6.70;70.00;;;;;;2516732;54;20984;-83
2023/02/08 12:50:59;;;;;;;8.50;4.78;;;6.80;70.30;;;;;;2283807;56;22044;-83
2023/02/08 12:53:44;;;;;;;10.75;5.70;;;6.90;70.20;;;;;;2516863;54;22299;-83
2023/02/08 12:56:16;;;;;;;10.20;5.78;;;7.00;70.50;;;;;;2516241;53;20928;-84
2023/02/08 12:58:52;;;;;;;9.23;5.50;;;7.00;71.10;;;;;;2516878;54;21045;-84
2023/02/08 13:01:27;;;;;;;11.18;5.60;;;7.00;70.70;;;;;;2515895;52;20988;-84
2023/02/08 13:04:03;;;;;;;9.73;5.87;;;7.10;71.20;;;;;;2516366;52;20972;-84
2023/02/08 13:06:38;;;;;;;12.43;6.37;;;7.20;71.30;;;;;;2515917;54;21019;-83
2023/02/08 13:09:14;;;;;;;11.20;6.57;;;7.20;71.40;;;;;;2515767;54;21024;-84
2023/02/08 13:11:57;;;;;;;10.60;5.78;;;7.30;71.10;;;;;;2517163;52;20988;-84
2023/02/08 13:17:59;;;;;;;10.48;5.72;;;7.40;70.90;;;;;;2515761;52;20891;-84
2023/02/08 13:21:00;;;;;;;8.70;5.07;;;7.60;70.10;;;;;;2281443;56;21582;-84
2023/02/08 13:23:36;;;;;;;9.38;5.85;;;7.70;70.70;;;;;;2515156;52;20905;-84
2023/02/08 13:26:26;;;;;;;10.95;6.55;;;7.70;71.30;;;;;;2515179;52;20939;-85
2023/02/08 13:29:01;;;;;;;10.82;6.03;;;7.80;71.10;;;;;;2488507;52;20958;-85
2023/02/08 13:31:37;;;;;;;10.00;6.30;;;7.80;71.00;;;;;;2514341;52;20901;-83
2023/02/08 13:34:35;;;;;;;12.52;6.30;;;7.90;70.80;;;;;;2514045;52;20893;-84
2023/02/08 13:37:06;;;;;;;11.15;7.07;;;8.00;70.20;;;;;;2514267;52;22017;-84
2023/02/08 13:39:42;;;;;;;11.32;6.80;;;8.00;71.20;;;;;;2513504;52;21461;-84
2023/02/08 13:42:21;;;;;;;13.62;6.85;;;8.10;71.40;;;;;;2513947;52;20988;-84
2023/02/08 13:44:49;;;;;;;12.15;6.97;;;8.10;70.70;;;;;;2513882;52;20897;-84
2023/02/08 13:47:47;;;;;;;9.77;5.87;;;8.20;71.30;;;;;;2513869;52;22109;-84
2023/02/08 13:52:51;;;;;;;9.63;6.32;;;8.20;69.60;;;;;;2259581;55;22145;-84
2023/02/08 13:57:27;;;;;;;9.52;5.28;;;8.30;69.60;;;;;;2513874;52;20889;-85
2023/02/08 14:00:22;;;;;;;9.88;5.62;;;8.30;69.30;;;;;;2513613;52;21522;-84
2023/02/08 14:03:02;;;;;;;8.43;5.32;;;8.40;69.90;;;;;;2514125;52;20877;-84
2023/02/08 14:05:52;;;;;;;9.63;4.80;;;8.40;69.80;;;;;;2280944;56;21264;-84
2023/02/08 14:09:40;;;;;;;8.30;4.97;;;8.40;69.60;;;;;;2513255;52;20881;-84
2023/02/08 14:14:15;;;;;;;9.93;5.40;;;8.50;69.40;;;;;;2491278;52;20975;-84
2023/02/08 14:16:45;;;;;;;8.63;4.80;;;8.50;69.60;;;;;;2513794;52;22045;-85
2023/02/08 14:19:22;;;;;;;9.13;5.22;;;8.60;70.40;;;;;;2490620;52;21091;-84
2023/02/08 14:21:58;;;;;;;10.02;5.47;;;8.60;70.00;;;;;;2511323;52;22147;-85
2023/02/08 14:24:43;;;;;;;10.35;6.37;;;8.60;70.00;;;;;;2513742;52;20885;-84